sensor_id;sensor_type;location;lat;lon;timestamp;P1;durP1;ratioP1;P2;durP2;ratioP2
39190;SDS011;24916;51.676;6.614;2023-05-07T00:02:03;7.43;;;5.32;;
39190;SDS011;24916;51.676;6.614;2023-05-07T00:04:29;7.05;;;5.20;;
39190;SDS011;24916;51.676;6.614;2023-05-07T00:07:00;5.80;;;5.22;;
39190;SDS011;24916;51.676;6.614;2023-05-07T00:09:25;9.60;;;5.60;;
39190;SDS011;24916;51.676;6.614;2023-05-07T00:11:51;8.40;;;5.05;;
39190;SDS011;24916;51.676;6.614;2023-05-07T00:14:16;6.87;;;5.13;;
39190;SDS011;24916;51.676;6.614;2023-05-07T00:16:41;10.10;;;5.70;;
39190;SDS011;24916;51.676;6.614;2023-05-07T00:19:07;7.80;;;5.70;;
39190;SDS011;24916;51.676;6.614;2023-05-07T00:21:32;7.88;;;5.60;;
39190;SDS011;24916;51.676;6.614;2023-05-07T00:23:57;6.22;;;5.50;;
39190;SDS011;24916;51.676;6.614;2023-05-07T00:26:22;8.73;;;6.30;;
39190;SDS011;24916;51.676;6.614;2023-05-07T00:28:47;9.60;;;5.72;;
39190;SDS011;24916;51.676;6.614;2023-05-07T00:31:13;10.83;;;6.33;;
39190;SDS011;24916;51.676;6.614;2023-05-07T00:33:38;7.13;;;5.53;;
39190;SDS011;24916;51.676;6.614;2023-05-07T00:36:03;8.45;;;6.28;;
39190;SDS011;24916;51.676;6.614;2023-05-07T00:38:29;6.95;;;6.15;;
39190;SDS011;24916;51.676;6.614;2023-05-07T00:40:54;8.20;;;6.47;;
39190;SDS011;24916;51.676;6.614;2023-05-07T00:43:19;7.60;;;6.38;;
39190;SDS011;24916;51.676;6.614;2023-05-07T00:45:44;7.43;;;6.22;;
39190;SDS011;24916;51.676;6.614;2023-05-07T00:48:10;28.40;;;6.57;;
39190;SDS011;24916;51.676;6.614;2023-05-07T00:50:35;8.90;;;5.90;;
39190;SDS011;24916;51.676;6.614;2023-05-07T00:53:00;11.38;;;6.75;;
39190;SDS011;24916;51.676;6.614;2023-05-07T00:55:26;8.30;;;6.55;;
39190;SDS011;24916;51.676;6.614;2023-05-07T00:57:51;7.82;;;6.43;;
39190;SDS011;24916;51.676;6.614;2023-05-07T01:00:17;9.02;;;6.68;;
39190;SDS011;24916;51.676;6.614;2023-05-07T01:02:43;8.57;;;6.57;;
39190;SDS011;24916;51.676;6.614;2023-05-07T01:05:09;8.68;;;7.28;;
39190;SDS011;24916;51.676;6.614;2023-05-07T01:07:36;9.02;;;6.75;;
39190;SDS011;24916;51.676;6.614;2023-05-07T01:10:02;7.45;;;6.57;;
39190;SDS011;24916;51.676;6.614;2023-05-07T01:12:27;9.63;;;6.38;;
39190;SDS011;24916;51.676;6.614;2023-05-07T01:14:53;9.48;;;6.95;;
39190;SDS011;24916;51.676;6.614;2023-05-07T01:17:19;9.82;;;7.70;;
39190;SDS011;24916;51.676;6.614;2023-05-07T01:19:44;10.23;;;7.57;;
39190;SDS011;24916;51.676;6.614;2023-05-07T01:22:09;8.73;;;6.95;;
39190;SDS011;24916;51.676;6.614;2023-05-07T01:24:39;8.13;;;6.95;;
39190;SDS011;24916;51.676;6.614;2023-05-07T01:27:05;11.52;;;7.38;;
39190;SDS011;24916;51.676;6.614;2023-05-07T01:29:30;10.10;;;7.68;;
39190;SDS011;24916;51.676;6.614;2023-05-07T01:31:59;11.60;;;8.00;;
39190;SDS011;24916;51.676;6.614;2023-05-07T01:34:25;8.60;;;7.53;;
39190;SDS011;24916;51.676;6.614;2023-05-07T01:36:52;9.45;;;7.90;;
39190;SDS011;24916;51.676;6.614;2023-05-07T01:39:17;10.48;;;9.00;;
39190;SDS011;24916;51.676;6.614;2023-05-07T01:41:42;9.38;;;8.18;;
39190;SDS011;24916;51.676;6.614;2023-05-07T01:44:08;9.98;;;8.68;;
39190;SDS011;24916;51.676;6.614;2023-05-07T01:46:35;13.32;;;9.52;;
39190;SDS011;24916;51.676;6.614;2023-05-07T01:49:00;11.82;;;9.38;;
39190;SDS011;24916;51.676;6.614;2023-05-07T01:51:26;10.73;;;8.93;;
39190;SDS011;24916;51.676;6.614;2023-05-07T01:53:52;10.68;;;8.95;;
39190;SDS011;24916;51.676;6.614;2023-05-07T01:56:18;12.80;;;9.93;;
39190;SDS011;24916;51.676;6.614;2023-05-07T01:58:44;13.30;;;9.20;;
39190;SDS011;24916;51.676;6.614;2023-05-07T02:01:10;10.77;;;9.60;;
39190;SDS011;24916;51.676;6.614;2023-05-07T02:03:36;10.93;;;9.57;;
39190;SDS011;24916;51.676;6.614;2023-05-07T02:06:01;10.68;;;9.35;;
39190;SDS011;24916;51.676;6.614;2023-05-07T02:08:26;10.60;;;8.87;;
39190;SDS011;24916;51.676;6.614;2023-05-07T02:10:52;10.13;;;9.05;;
39190;SDS011;24916;51.676;6.614;2023-05-07T02:13:18;10.35;;;9.15;;
39190;SDS011;24916;51.676;6.614;2023-05-07T02:15:44;10.80;;;9.10;;
39190;SDS011;24916;51.676;6.614;2023-05-07T02:18:14;12.65;;;9.48;;
39190;SDS011;24916;51.676;6.614;2023-05-07T02:20:39;12.97;;;9.53;;
39190;SDS011;24916;51.676;6.614;2023-05-07T02:23:04;12.55;;;9.85;;
39190;SDS011;24916;51.676;6.614;2023-05-07T02:25:29;12.35;;;9.82;;
39190;SDS011;24916;51.676;6.614;2023-05-07T02:27:55;11.75;;;10.38;;
39190;SDS011;24916;51.676;6.614;2023-05-07T02:30:20;11.93;;;10.05;;
39190;SDS011;24916;51.676;6.614;2023-05-07T02:32:46;11.60;;;10.13;;
39190;SDS011;24916;51.676;6.614;2023-05-07T02:35:11;13.32;;;11.80;;
39190;SDS011;24916;51.676;6.614;2023-05-07T02:37:36;12.25;;;11.05;;
39190;SDS011;24916;51.676;6.614;2023-05-07T02:40:02;11.43;;;10.23;;
39190;SDS011;24916;51.676;6.614;2023-05-07T02:42:28;12.25;;;10.70;;
39190;SDS011;24916;51.676;6.614;2023-05-07T02:44:53;14.40;;;10.90;;
39190;SDS011;24916;51.676;6.614;2023-05-07T02:47:18;14.53;;;10.90;;
39190;SDS011;24916;51.676;6.614;2023-05-07T02:49:44;12.23;;;11.02;;
39190;SDS011;24916;51.676;6.614;2023-05-07T02:52:09;11.65;;;10.45;;
39190;SDS011;24916;51.676;6.614;2023-05-07T02:54:34;11.70;;;10.50;;
39190;SDS011;24916;51.676;6.614;2023-05-07T02:57:00;12.85;;;11.55;;
39190;SDS011;24916;51.676;6.614;2023-05-07T02:59:26;12.20;;;10.82;;
39190;SDS011;24916;51.676;6.614;2023-05-07T03:01:51;12.15;;;10.85;;
39190;SDS011;24916;51.676;6.614;2023-05-07T03:04:16;13.85;;;11.63;;
39190;SDS011;24916;51.676;6.614;2023-05-07T03:06:42;13.45;;;12.05;;
39190;SDS011;24916;51.676;6.614;2023-05-07T03:09:07;13.53;;;11.00;;
39190;SDS011;24916;51.676;6.614;2023-05-07T03:11:32;17.52;;;11.45;;
39190;SDS011;24916;51.676;6.614;2023-05-07T03:13:57;13.27;;;11.07;;
39190;SDS011;24916;51.676;6.614;2023-05-07T03:16:22;13.73;;;12.05;;
39190;SDS011;24916;51.676;6.614;2023-05-07T03:18:48;13.23;;;11.57;;
39190;SDS011;24916;51.676;6.614;2023-05-07T03:21:13;17.60;;;12.23;;
39190;SDS011;24916;51.676;6.614;2023-05-07T03:23:38;15.07;;;12.25;;
39190;SDS011;24916;51.676;6.614;2023-05-07T03:26:03;16.38;;;12.27;;
39190;SDS011;24916;51.676;6.614;2023-05-07T03:28:28;14.30;;;12.83;;
39190;SDS011;24916;51.676;6.614;2023-05-07T03:30:54;13.97;;;12.40;;
39190;SDS011;24916;51.676;6.614;2023-05-07T03:33:19;15.13;;;12.23;;
39190;SDS011;24916;51.676;6.614;2023-05-07T03:35:44;13.18;;;11.48;;
39190;SDS011;24916;51.676;6.614;2023-05-07T03:38:09;14.13;;;12.63;;
39190;SDS011;24916;51.676;6.614;2023-05-07T03:40:35;14.73;;;12.15;;
39190;SDS011;24916;51.676;6.614;2023-05-07T03:43:00;13.05;;;11.48;;
39190;SDS011;24916;51.676;6.614;2023-05-07T03:45:25;14.30;;;12.85;;
39190;SDS011;24916;51.676;6.614;2023-05-07T03:47:51;12.95;;;11.68;;
39190;SDS011;24916;51.676;6.614;2023-05-07T03:50:16;14.65;;;13.32;;
39190;SDS011;24916;51.676;6.614;2023-05-07T03:52:41;14.05;;;12.63;;
39190;SDS011;24916;51.676;6.614;2023-05-07T03:55:06;14.70;;;12.80;;
39190;SDS011;24916;51.676;6.614;2023-05-07T03:57:32;16.35;;;12.90;;
39190;SDS011;24916;51.676;6.614;2023-05-07T03:59:57;14.15;;;12.65;;
39190;SDS011;24916;51.676;6.614;2023-05-07T04:02:22;14.27;;;12.85;;
39190;SDS011;24916;51.676;6.614;2023-05-07T04:04:48;14.80;;;11.85;;
39190;SDS011;24916;51.676;6.614;2023-05-07T04:07:14;15.65;;;13.00;;
39190;SDS011;24916;51.676;6.614;2023-05-07T04:09:40;18.33;;;11.82;;
39190;SDS011;24916;51.676;6.614;2023-05-07T04:12:05;12.48;;;11.27;;
39190;SDS011;24916;51.676;6.614;2023-05-07T04:14:30;18.85;;;12.90;;
39190;SDS011;24916;51.676;6.614;2023-05-07T04:16:57;14.48;;;12.00;;
39190;SDS011;24916;51.676;6.614;2023-05-07T04:19:22;17.75;;;13.13;;
39190;SDS011;24916;51.676;6.614;2023-05-07T04:21:47;14.17;;;12.63;;
39190;SDS011;24916;51.676;6.614;2023-05-07T04:24:12;16.70;;;13.40;;
39190;SDS011;24916;51.676;6.614;2023-05-07T04:26:38;16.10;;;12.88;;
39190;SDS011;24916;51.676;6.614;2023-05-07T04:29:05;14.20;;;12.82;;
39190;SDS011;24916;51.676;6.614;2023-05-07T04:31:30;15.18;;;13.40;;
39190;SDS011;24916;51.676;6.614;2023-05-07T04:33:56;15.13;;;13.10;;
39190;SDS011;24916;51.676;6.614;2023-05-07T04:36:22;16.10;;;13.02;;
39190;SDS011;24916;51.676;6.614;2023-05-07T04:38:47;14.67;;;12.60;;
39190;SDS011;24916;51.676;6.614;2023-05-07T04:41:12;15.17;;;13.00;;
39190;SDS011;24916;51.676;6.614;2023-05-07T04:43:37;14.77;;;12.82;;
39190;SDS011;24916;51.676;6.614;2023-05-07T04:46:03;15.63;;;12.23;;
39190;SDS011;24916;51.676;6.614;2023-05-07T04:48:28;14.75;;;12.30;;
39190;SDS011;24916;51.676;6.614;2023-05-07T04:50:54;14.00;;;12.43;;
39190;SDS011;24916;51.676;6.614;2023-05-07T04:53:19;14.48;;;12.60;;
39190;SDS011;24916;51.676;6.614;2023-05-07T04:55:45;16.05;;;13.30;;
39190;SDS011;24916;51.676;6.614;2023-05-07T04:58:10;13.52;;;12.10;;
39190;SDS011;24916;51.676;6.614;2023-05-07T05:00:36;13.30;;;11.38;;
39190;SDS011;24916;51.676;6.614;2023-05-07T05:03:01;15.93;;;12.55;;
39190;SDS011;24916;51.676;6.614;2023-05-07T05:05:26;16.20;;;13.15;;
39190;SDS011;24916;51.676;6.614;2023-05-07T05:07:52;13.85;;;12.43;;
39190;SDS011;24916;51.676;6.614;2023-05-07T05:10:17;14.30;;;11.98;;
39190;SDS011;24916;51.676;6.614;2023-05-07T05:12:43;13.70;;;12.15;;
39190;SDS011;24916;51.676;6.614;2023-05-07T05:15:09;15.40;;;12.43;;
39190;SDS011;24916;51.676;6.614;2023-05-07T05:17:35;13.40;;;12.00;;
39190;SDS011;24916;51.676;6.614;2023-05-07T05:20:01;16.02;;;12.57;;
39190;SDS011;24916;51.676;6.614;2023-05-07T05:22:27;15.55;;;11.57;;
39190;SDS011;24916;51.676;6.614;2023-05-07T05:24:54;13.27;;;12.00;;
39190;SDS011;24916;51.676;6.614;2023-05-07T05:27:20;18.75;;;11.10;;
39190;SDS011;24916;51.676;6.614;2023-05-07T05:29:45;13.43;;;11.43;;
39190;SDS011;24916;51.676;6.614;2023-05-07T05:32:10;11.50;;;10.30;;
39190;SDS011;24916;51.676;6.614;2023-05-07T05:34:35;12.23;;;11.13;;
39190;SDS011;24916;51.676;6.614;2023-05-07T05:37:00;11.70;;;10.60;;
39190;SDS011;24916;51.676;6.614;2023-05-07T05:39:26;11.63;;;9.73;;
39190;SDS011;24916;51.676;6.614;2023-05-07T05:41:51;10.68;;;9.63;;
39190;SDS011;24916;51.676;6.614;2023-05-07T05:44:16;12.63;;;9.88;;
39190;SDS011;24916;51.676;6.614;2023-05-07T05:46:42;13.88;;;10.70;;
39190;SDS011;24916;51.676;6.614;2023-05-07T05:49:07;11.87;;;10.63;;
39190;SDS011;24916;51.676;6.614;2023-05-07T05:51:32;11.15;;;10.02;;
39190;SDS011;24916;51.676;6.614;2023-05-07T05:53:57;15.32;;;10.70;;
39190;SDS011;24916;51.676;6.614;2023-05-07T05:56:23;10.57;;;9.47;;
39190;SDS011;24916;51.676;6.614;2023-05-07T05:58:48;12.50;;;9.77;;
39190;SDS011;24916;51.676;6.614;2023-05-07T06:01:13;11.95;;;8.85;;
39190;SDS011;24916;51.676;6.614;2023-05-07T06:03:38;11.30;;;10.10;;
39190;SDS011;24916;51.676;6.614;2023-05-07T06:06:03;11.43;;;9.75;;
39190;SDS011;24916;51.676;6.614;2023-05-07T06:08:29;8.57;;;7.78;;
39190;SDS011;24916;51.676;6.614;2023-05-07T06:10:54;9.93;;;8.90;;
39190;SDS011;24916;51.676;6.614;2023-05-07T06:13:19;9.85;;;8.82;;
39190;SDS011;24916;51.676;6.614;2023-05-07T06:15:45;10.73;;;9.15;;
39190;SDS011;24916;51.676;6.614;2023-05-07T06:18:10;11.57;;;9.57;;
39190;SDS011;24916;51.676;6.614;2023-05-07T06:20:36;9.48;;;8.55;;
39190;SDS011;24916;51.676;6.614;2023-05-07T06:23:01;10.50;;;9.50;;
39190;SDS011;24916;51.676;6.614;2023-05-07T06:25:26;10.02;;;8.40;;
39190;SDS011;24916;51.676;6.614;2023-05-07T06:27:52;12.50;;;8.52;;
39190;SDS011;24916;51.676;6.614;2023-05-07T06:30:17;10.70;;;8.18;;
39190;SDS011;24916;51.676;6.614;2023-05-07T06:32:42;10.10;;;8.90;;
39190;SDS011;24916;51.676;6.614;2023-05-07T06:35:08;10.95;;;8.02;;
39190;SDS011;24916;51.676;6.614;2023-05-07T06:37:33;9.23;;;8.30;;
39190;SDS011;24916;51.676;6.614;2023-05-07T06:39:58;19.63;;;8.20;;
39190;SDS011;24916;51.676;6.614;2023-05-07T06:42:23;11.38;;;8.60;;
39190;SDS011;24916;51.676;6.614;2023-05-07T06:44:49;8.85;;;7.68;;
39190;SDS011;24916;51.676;6.614;2023-05-07T06:47:14;8.73;;;7.20;;
39190;SDS011;24916;51.676;6.614;2023-05-07T06:49:39;8.73;;;7.15;;
39190;SDS011;24916;51.676;6.614;2023-05-07T06:52:04;10.38;;;7.70;;
39190;SDS011;24916;51.676;6.614;2023-05-07T06:54:30;7.93;;;7.20;;
39190;SDS011;24916;51.676;6.614;2023-05-07T06:56:55;8.27;;;7.05;;
39190;SDS011;24916;51.676;6.614;2023-05-07T06:59:20;8.77;;;7.85;;
39190;SDS011;24916;51.676;6.614;2023-05-07T07:01:45;11.00;;;6.72;;
39190;SDS011;24916;51.676;6.614;2023-05-07T07:04:10;8.55;;;6.53;;
39190;SDS011;24916;51.676;6.614;2023-05-07T07:06:36;7.75;;;6.53;;
39190;SDS011;24916;51.676;6.614;2023-05-07T07:09:01;11.85;;;5.82;;
39190;SDS011;24916;51.676;6.614;2023-05-07T07:11:26;9.30;;;6.45;;
39190;SDS011;24916;51.676;6.614;2023-05-07T07:13:51;7.35;;;6.07;;
39190;SDS011;24916;51.676;6.614;2023-05-07T07:16:19;6.90;;;6.05;;
39190;SDS011;24916;51.676;6.614;2023-05-07T07:18:44;6.85;;;5.75;;
39190;SDS011;24916;51.676;6.614;2023-05-07T07:21:10;6.82;;;5.57;;
39190;SDS011;24916;51.676;6.614;2023-05-07T07:23:35;7.30;;;5.57;;
39190;SDS011;24916;51.676;6.614;2023-05-07T07:26:00;7.53;;;5.32;;
39190;SDS011;24916;51.676;6.614;2023-05-07T07:28:25;8.43;;;5.83;;
39190;SDS011;24916;51.676;6.614;2023-05-07T07:30:51;7.63;;;5.55;;
39190;SDS011;24916;51.676;6.614;2023-05-07T07:33:16;7.23;;;5.47;;
39190;SDS011;24916;51.676;6.614;2023-05-07T07:35:41;10.68;;;5.40;;
39190;SDS011;24916;51.676;6.614;2023-05-07T07:38:06;8.02;;;5.15;;
39190;SDS011;24916;51.676;6.614;2023-05-07T07:40:33;8.30;;;4.88;;
39190;SDS011;24916;51.676;6.614;2023-05-07T07:42:59;5.93;;;4.75;;
39190;SDS011;24916;51.676;6.614;2023-05-07T07:45:26;6.72;;;5.13;;
39190;SDS011;24916;51.676;6.614;2023-05-07T07:47:51;8.38;;;5.30;;
39190;SDS011;24916;51.676;6.614;2023-05-07T07:50:16;6.60;;;5.10;;
39190;SDS011;24916;51.676;6.614;2023-05-07T07:52:41;6.15;;;4.68;;
39190;SDS011;24916;51.676;6.614;2023-05-07T07:55:07;7.10;;;4.22;;
39190;SDS011;24916;51.676;6.614;2023-05-07T07:57:32;8.25;;;4.70;;
39190;SDS011;24916;51.676;6.614;2023-05-07T07:59:58;4.32;;;3.92;;
39190;SDS011;24916;51.676;6.614;2023-05-07T08:02:23;6.82;;;4.35;;
39190;SDS011;24916;51.676;6.614;2023-05-07T08:04:48;7.97;;;4.72;;
39190;SDS011;24916;51.676;6.614;2023-05-07T08:07:13;5.67;;;4.00;;
39190;SDS011;24916;51.676;6.614;2023-05-07T08:09:39;5.03;;;4.20;;
39190;SDS011;24916;51.676;6.614;2023-05-07T08:12:05;6.45;;;4.25;;
39190;SDS011;24916;51.676;6.614;2023-05-07T08:14:30;7.55;;;4.55;;
39190;SDS011;24916;51.676;6.614;2023-05-07T08:16:55;5.28;;;3.95;;
39190;SDS011;24916;51.676;6.614;2023-05-07T08:19:21;4.47;;;3.50;;
39190;SDS011;24916;51.676;6.614;2023-05-07T08:21:46;6.97;;;4.10;;
39190;SDS011;24916;51.676;6.614;2023-05-07T08:24:15;8.00;;;4.80;;
39190;SDS011;24916;51.676;6.614;2023-05-07T08:26:41;8.60;;;6.90;;
39190;SDS011;24916;51.676;6.614;2023-05-07T08:29:06;5.28;;;4.53;;
39190;SDS011;24916;51.676;6.614;2023-05-07T08:31:31;5.15;;;4.10;;
39190;SDS011;24916;51.676;6.614;2023-05-07T08:33:57;8.25;;;5.47;;
39190;SDS011;24916;51.676;6.614;2023-05-07T08:36:22;5.25;;;4.18;;
39190;SDS011;24916;51.676;6.614;2023-05-07T08:38:47;4.28;;;3.80;;
39190;SDS011;24916;51.676;6.614;2023-05-07T08:41:14;6.40;;;4.20;;
39190;SDS011;24916;51.676;6.614;2023-05-07T08:43:40;4.22;;;3.72;;
39190;SDS011;24916;51.676;6.614;2023-05-07T08:46:05;5.88;;;3.97;;
39190;SDS011;24916;51.676;6.614;2023-05-07T08:48:31;9.27;;;4.32;;
39190;SDS011;24916;51.676;6.614;2023-05-07T08:50:57;4.85;;;3.72;;
39190;SDS011;24916;51.676;6.614;2023-05-07T08:53:23;4.30;;;3.55;;
39190;SDS011;24916;51.676;6.614;2023-05-07T08:55:48;7.47;;;4.45;;
39190;SDS011;24916;51.676;6.614;2023-05-07T08:58:13;5.03;;;3.55;;
39190;SDS011;24916;51.676;6.614;2023-05-07T09:00:39;4.68;;;3.35;;
39190;SDS011;24916;51.676;6.614;2023-05-07T09:03:05;6.03;;;3.70;;
39190;SDS011;24916;51.676;6.614;2023-05-07T09:05:30;6.90;;;4.05;;
39190;SDS011;24916;51.676;6.614;2023-05-07T09:07:58;9.32;;;3.50;;
39190;SDS011;24916;51.676;6.614;2023-05-07T09:10:23;5.28;;;3.85;;
39190;SDS011;24916;51.676;6.614;2023-05-07T09:12:48;4.63;;;4.05;;
39190;SDS011;24916;51.676;6.614;2023-05-07T09:15:14;4.45;;;3.45;;
39190;SDS011;24916;51.676;6.614;2023-05-07T09:17:39;6.85;;;4.18;;
39190;SDS011;24916;51.676;6.614;2023-05-07T09:20:06;6.30;;;4.57;;
39190;SDS011;24916;51.676;6.614;2023-05-07T09:22:32;5.03;;;3.50;;
39190;SDS011;24916;51.676;6.614;2023-05-07T09:24:57;6.00;;;4.35;;
39190;SDS011;24916;51.676;6.614;2023-05-07T09:27:23;6.67;;;3.93;;
39190;SDS011;24916;51.676;6.614;2023-05-07T09:29:48;3.73;;;2.90;;
39190;SDS011;24916;51.676;6.614;2023-05-07T09:32:13;7.60;;;4.70;;
39190;SDS011;24916;51.676;6.614;2023-05-07T09:34:39;6.60;;;3.75;;
39190;SDS011;24916;51.676;6.614;2023-05-07T09:37:05;5.07;;;3.25;;
39190;SDS011;24916;51.676;6.614;2023-05-07T09:39:43;4.43;;;3.03;;
39190;SDS011;24916;51.676;6.614;2023-05-07T09:42:08;3.67;;;2.72;;
39190;SDS011;24916;51.676;6.614;2023-05-07T09:44:34;3.97;;;2.95;;
39190;SDS011;24916;51.676;6.614;2023-05-07T09:46:59;4.40;;;2.55;;
39190;SDS011;24916;51.676;6.614;2023-05-07T09:49:25;4.63;;;2.90;;
39190;SDS011;24916;51.676;6.614;2023-05-07T09:51:54;4.80;;;3.35;;
39190;SDS011;24916;51.676;6.614;2023-05-07T09:54:20;4.15;;;3.13;;
39190;SDS011;24916;51.676;6.614;2023-05-07T09:56:45;3.85;;;2.75;;
39190;SDS011;24916;51.676;6.614;2023-05-07T09:59:13;6.50;;;3.63;;
39190;SDS011;24916;51.676;6.614;2023-05-07T10:01:38;4.57;;;2.45;;
39190;SDS011;24916;51.676;6.614;2023-05-07T10:04:05;4.55;;;2.55;;
39190;SDS011;24916;51.676;6.614;2023-05-07T10:06:33;4.47;;;2.25;;
39190;SDS011;24916;51.676;6.614;2023-05-07T10:08:59;5.25;;;2.35;;
39190;SDS011;24916;51.676;6.614;2023-05-07T10:11:24;4.00;;;2.65;;
39190;SDS011;24916;51.676;6.614;2023-05-07T10:13:49;4.47;;;3.35;;
39190;SDS011;24916;51.676;6.614;2023-05-07T10:16:16;5.90;;;4.40;;
39190;SDS011;24916;51.676;6.614;2023-05-07T10:18:42;5.25;;;2.70;;
39190;SDS011;24916;51.676;6.614;2023-05-07T10:21:08;5.95;;;2.22;;
39190;SDS011;24916;51.676;6.614;2023-05-07T10:23:35;9.20;;;3.90;;
39190;SDS011;24916;51.676;6.614;2023-05-07T10:26:02;7.75;;;5.70;;
39190;SDS011;24916;51.676;6.614;2023-05-07T10:28:29;5.70;;;3.33;;
39190;SDS011;24916;51.676;6.614;2023-05-07T10:30:58;6.22;;;3.08;;
39190;SDS011;24916;51.676;6.614;2023-05-07T10:33:28;4.57;;;2.95;;
39190;SDS011;24916;51.676;6.614;2023-05-07T10:35:57;5.38;;;3.00;;
39190;SDS011;24916;51.676;6.614;2023-05-07T10:38:24;7.22;;;2.90;;
39190;SDS011;24916;51.676;6.614;2023-05-07T10:40:50;6.20;;;4.18;;
39190;SDS011;24916;51.676;6.614;2023-05-07T10:43:15;6.30;;;3.00;;
39190;SDS011;24916;51.676;6.614;2023-05-07T10:45:41;3.42;;;2.60;;
39190;SDS011;24916;51.676;6.614;2023-05-07T10:48:06;4.35;;;3.30;;
39190;SDS011;24916;51.676;6.614;2023-05-07T10:50:33;5.47;;;2.17;;
39190;SDS011;24916;51.676;6.614;2023-05-07T10:55:41;7.88;;;3.40;;
39190;SDS011;24916;51.676;6.614;2023-05-07T11:00:47;6.85;;;4.20;;
39190;SDS011;24916;51.676;6.614;2023-05-07T11:03:13;5.88;;;3.00;;
39190;SDS011;24916;51.676;6.614;2023-05-07T11:05:40;4.50;;;3.63;;
39190;SDS011;24916;51.676;6.614;2023-05-07T11:08:05;10.23;;;4.25;;
39190;SDS011;24916;51.676;6.614;2023-05-07T11:10:50;5.85;;;3.67;;
39190;SDS011;24916;51.676;6.614;2023-05-07T11:13:16;7.32;;;5.03;;
39190;SDS011;24916;51.676;6.614;2023-05-07T11:15:42;6.60;;;3.47;;
39190;SDS011;24916;51.676;6.614;2023-05-07T11:18:08;7.20;;;4.78;;
39190;SDS011;24916;51.676;6.614;2023-05-07T11:20:50;5.88;;;3.90;;
39190;SDS011;24916;51.676;6.614;2023-05-07T11:28:28;11.55;;;2.63;;
39190;SDS011;24916;51.676;6.614;2023-05-07T11:30:53;7.57;;;2.90;;
39190;SDS011;24916;51.676;6.614;2023-05-07T11:33:19;3.40;;;2.15;;
39190;SDS011;24916;51.676;6.614;2023-05-07T11:35:44;7.47;;;2.50;;
39190;SDS011;24916;51.676;6.614;2023-05-07T11:38:10;5.95;;;2.70;;
39190;SDS011;24916;51.676;6.614;2023-05-07T11:40:46;3.83;;;2.28;;
39190;SDS011;24916;51.676;6.614;2023-05-07T11:43:13;4.90;;;1.80;;
39190;SDS011;24916;51.676;6.614;2023-05-07T11:45:38;5.97;;;2.00;;
39190;SDS011;24916;51.676;6.614;2023-05-07T11:48:04;4.35;;;2.60;;
39190;SDS011;24916;51.676;6.614;2023-05-07T11:50:29;3.95;;;2.30;;
39190;SDS011;24916;51.676;6.614;2023-05-07T11:52:55;8.52;;;2.40;;
39190;SDS011;24916;51.676;6.614;2023-05-07T11:55:20;4.03;;;2.17;;
39190;SDS011;24916;51.676;6.614;2023-05-07T11:57:46;5.53;;;3.05;;
39190;SDS011;24916;51.676;6.614;2023-05-07T12:00:12;12.23;;;4.03;;
39190;SDS011;24916;51.676;6.614;2023-05-07T12:02:40;4.63;;;2.42;;
39190;SDS011;24916;51.676;6.614;2023-05-07T12:05:06;5.78;;;2.90;;
39190;SDS011;24916;51.676;6.614;2023-05-07T12:07:33;5.05;;;2.60;;
39190;SDS011;24916;51.676;6.614;2023-05-07T12:09:58;4.90;;;2.70;;
39190;SDS011;24916;51.676;6.614;2023-05-07T12:12:23;5.05;;;2.05;;
39190;SDS011;24916;51.676;6.614;2023-05-07T12:14:48;4.47;;;2.50;;
39190;SDS011;24916;51.676;6.614;2023-05-07T12:17:14;3.83;;;2.30;;
39190;SDS011;24916;51.676;6.614;2023-05-07T12:19:40;3.38;;;2.10;;
39190;SDS011;24916;51.676;6.614;2023-05-07T12:22:09;6.00;;;3.40;;
39190;SDS011;24916;51.676;6.614;2023-05-07T12:24:44;5.00;;;4.05;;
39190;SDS011;24916;51.676;6.614;2023-05-07T12:27:10;4.45;;;3.15;;
39190;SDS011;24916;51.676;6.614;2023-05-07T12:29:35;4.78;;;3.72;;
39190;SDS011;24916;51.676;6.614;2023-05-07T12:32:00;10.30;;;3.10;;
39190;SDS011;24916;51.676;6.614;2023-05-07T12:34:25;7.10;;;3.65;;
39190;SDS011;24916;51.676;6.614;2023-05-07T12:36:51;4.60;;;2.63;;
39190;SDS011;24916;51.676;6.614;2023-05-07T12:39:16;5.53;;;2.60;;
39190;SDS011;24916;51.676;6.614;2023-05-07T12:41:57;8.10;;;2.03;;
39190;SDS011;24916;51.676;6.614;2023-05-07T12:44:26;10.65;;;2.75;;
39190;SDS011;24916;51.676;6.614;2023-05-07T12:46:53;2.88;;;1.85;;
39190;SDS011;24916;51.676;6.614;2023-05-07T12:49:19;5.53;;;3.50;;
39190;SDS011;24916;51.676;6.614;2023-05-07T12:51:46;6.60;;;3.22;;
39190;SDS011;24916;51.676;6.614;2023-05-07T12:54:11;6.10;;;3.85;;
39190;SDS011;24916;51.676;6.614;2023-05-07T12:56:39;5.03;;;2.88;;
39190;SDS011;24916;51.676;6.614;2023-05-07T12:59:05;7.47;;;3.15;;
39190;SDS011;24916;51.676;6.614;2023-05-07T13:01:31;4.57;;;2.30;;
39190;SDS011;24916;51.676;6.614;2023-05-07T13:04:00;5.65;;;2.47;;
39190;SDS011;24916;51.676;6.614;2023-05-07T13:06:25;3.70;;;1.80;;
39190;SDS011;24916;51.676;6.614;2023-05-07T13:08:51;7.97;;;3.33;;
39190;SDS011;24916;51.676;6.614;2023-05-07T13:11:16;8.40;;;4.05;;
39190;SDS011;24916;51.676;6.614;2023-05-07T13:13:41;6.27;;;2.93;;
39190;SDS011;24916;51.676;6.614;2023-05-07T13:16:07;3.85;;;2.60;;
39190;SDS011;24916;51.676;6.614;2023-05-07T13:18:33;4.30;;;2.72;;
39190;SDS011;24916;51.676;6.614;2023-05-07T13:20:58;4.82;;;2.20;;
39190;SDS011;24916;51.676;6.614;2023-05-07T13:23:24;5.93;;;2.30;;
39190;SDS011;24916;51.676;6.614;2023-05-07T13:25:49;12.80;;;5.60;;
39190;SDS011;24916;51.676;6.614;2023-05-07T13:28:15;4.28;;;2.92;;
39190;SDS011;24916;51.676;6.614;2023-05-07T13:30:41;5.20;;;4.10;;
39190;SDS011;24916;51.676;6.614;2023-05-07T13:33:06;4.93;;;3.03;;
39190;SDS011;24916;51.676;6.614;2023-05-07T13:35:32;5.82;;;3.63;;
39190;SDS011;24916;51.676;6.614;2023-05-07T13:37:57;7.10;;;2.38;;
39190;SDS011;24916;51.676;6.614;2023-05-07T13:40:23;3.20;;;2.63;;
39190;SDS011;24916;51.676;6.614;2023-05-07T13:42:48;5.03;;;2.42;;
39190;SDS011;24916;51.676;6.614;2023-05-07T13:45:14;11.32;;;4.32;;
39190;SDS011;24916;51.676;6.614;2023-05-07T13:47:40;4.82;;;2.85;;
39190;SDS011;24916;51.676;6.614;2023-05-07T13:50:05;4.72;;;2.70;;
39190;SDS011;24916;51.676;6.614;2023-05-07T13:52:31;4.80;;;2.80;;
39190;SDS011;24916;51.676;6.614;2023-05-07T13:54:56;5.55;;;3.20;;
39190;SDS011;24916;51.676;6.614;2023-05-07T13:57:23;7.07;;;3.42;;
39190;SDS011;24916;51.676;6.614;2023-05-07T13:59:48;4.30;;;2.78;;
39190;SDS011;24916;51.676;6.614;2023-05-07T14:02:14;5.97;;;3.73;;
39190;SDS011;24916;51.676;6.614;2023-05-07T14:04:40;5.57;;;3.63;;
39190;SDS011;24916;51.676;6.614;2023-05-07T14:07:05;5.70;;;3.90;;
39190;SDS011;24916;51.676;6.614;2023-05-07T14:09:30;7.38;;;4.60;;
39190;SDS011;24916;51.676;6.614;2023-05-07T14:11:55;5.03;;;4.10;;
39190;SDS011;24916;51.676;6.614;2023-05-07T14:14:20;5.30;;;3.60;;
39190;SDS011;24916;51.676;6.614;2023-05-07T14:16:46;6.07;;;4.15;;
39190;SDS011;24916;51.676;6.614;2023-05-07T14:19:11;6.47;;;3.92;;
39190;SDS011;24916;51.676;6.614;2023-05-07T14:21:37;8.15;;;4.00;;
39190;SDS011;24916;51.676;6.614;2023-05-07T14:24:02;6.80;;;3.50;;
39190;SDS011;24916;51.676;6.614;2023-05-07T14:26:27;5.50;;;3.50;;
39190;SDS011;24916;51.676;6.614;2023-05-07T14:28:53;5.80;;;4.35;;
39190;SDS011;24916;51.676;6.614;2023-05-07T14:31:20;5.72;;;4.05;;
39190;SDS011;24916;51.676;6.614;2023-05-07T14:33:45;6.72;;;3.97;;
39190;SDS011;24916;51.676;6.614;2023-05-07T14:36:10;6.30;;;5.10;;
39190;SDS011;24916;51.676;6.614;2023-05-07T14:38:35;5.30;;;3.85;;
39190;SDS011;24916;51.676;6.614;2023-05-07T14:41:01;7.33;;;3.70;;
39190;SDS011;24916;51.676;6.614;2023-05-07T14:43:26;5.90;;;3.65;;